sensor_id;sensor_type;location;lat;lon;timestamp;pressure;altitude;pressure_sealevel;temperature;humidity
13836;BME280;6988;52.614;13.500;2024-02-21T00:03:35;54783.25;;;-143.77;78.83
13836;BME280;6988;52.614;13.500;2024-02-21T00:08:26;54793.50;;;-143.77;79.07
13836;BME280;6988;52.614;13.500;2024-02-21T00:13:18;54768.88;;;-143.77;79.23
13836;BME280;6988;52.614;13.500;2024-02-21T00:18:10;54770.94;;;-143.77;78.98
13836;BME280;6988;52.614;13.500;2024-02-21T00:23:04;54775.03;;;-143.77;78.94
13836;BME280;6988;52.614;13.500;2024-02-21T00:27:56;54816.09;;;-143.77;79.03
13836;BME280;6988;52.614;13.500;2024-02-21T00:32:48;54822.25;;;-143.77;78.88
13836;BME280;6988;52.614;13.500;2024-02-21T00:37:40;54781.19;;;-143.77;78.96
13836;BME280;6988;52.614;13.500;2024-02-21T00:42:33;54766.84;;;-143.77;78.98
13836;BME280;6988;52.614;13.500;2024-02-21T00:47:25;54814.03;;;-143.77;78.87
13836;BME280;6988;52.614;13.500;2024-02-21T00:52:17;54807.88;;;-143.77;78.68
13836;BME280;6988;52.614;13.500;2024-02-21T00:57:09;54775.03;;;-143.77;78.30
13836;BME280;6988;52.614;13.500;2024-02-21T01:02:03;54764.78;;;-143.77;78.42
13836;BME280;6988;52.614;13.500;2024-02-21T01:06:54;54853.03;;;-143.77;78.54
13836;BME280;6988;52.614;13.500;2024-02-21T01:11:46;54762.72;;;-143.77;78.58
13836;BME280;6988;52.614;13.500;2024-02-21T01:16:38;54770.94;;;-143.77;78.45
13836;BME280;6988;52.614;13.500;2024-02-21T01:21:31;54762.72;;;-143.77;78.47
13836;BME280;6988;52.614;13.500;2024-02-21T01:26:23;54783.25;;;-143.77;78.52
13836;BME280;6988;52.614;13.500;2024-02-21T01:31:15;54791.47;;;-143.77;78.27
13836;BME280;6988;52.614;13.500;2024-02-21T01:36:07;54781.19;;;-143.77;78.26
13836;BME280;6988;52.614;13.500;2024-02-21T01:41:01;54811.97;;;-143.77;78.56
13836;BME280;6988;52.614;13.500;2024-02-21T01:45:54;54744.25;;;-143.77;78.28
13836;BME280;6988;52.614;13.500;2024-02-21T01:50:49;54832.50;;;-143.77;77.79
13836;BME280;6988;52.614;13.500;2024-02-21T01:55:41;54766.84;;;-143.77;77.72
13836;BME280;6988;52.614;13.500;2024-02-21T02:00:37;54758.63;;;-143.77;77.54
13836;BME280;6988;52.614;13.500;2024-02-21T02:05:30;54781.19;;;-143.77;77.44
13836;BME280;6988;52.614;13.500;2024-02-21T02:10:22;54779.16;;;-143.77;76.96
13836;BME280;6988;52.614;13.500;2024-02-21T02:15:15;54799.66;;;-143.77;76.98
13836;BME280;6988;52.614;13.500;2024-02-21T02:20:10;54807.88;;;-143.77;76.48
13836;BME280;6988;52.614;13.500;2024-02-21T02:25:04;54762.72;;;-143.77;76.56
13836;BME280;6988;52.614;13.500;2024-02-21T02:29:56;54766.84;;;-143.77;76.83
13836;BME280;6988;52.614;13.500;2024-02-21T02:34:51;54764.78;;;-143.77;77.55
13836;BME280;6988;52.614;13.500;2024-02-21T02:39:43;54766.84;;;-143.77;78.79
13836;BME280;6988;52.614;13.500;2024-02-21T02:44:36;54775.03;;;-143.77;79.93
13836;BME280;6988;52.614;13.500;2024-02-21T02:49:28;54773.00;;;-143.77;80.39
13836;BME280;6988;52.614;13.500;2024-02-21T02:54:20;54766.84;;;-143.77;81.22
13836;BME280;6988;52.614;13.500;2024-02-21T02:59:11;54779.16;;;-143.77;81.72
13836;BME280;6988;52.614;13.500;2024-02-21T03:04:05;54781.19;;;-143.77;82.58
13836;BME280;6988;52.614;13.500;2024-02-21T03:08:56;54766.84;;;-143.77;82.99
13836;BME280;6988;52.614;13.500;2024-02-21T03:13:48;54773.00;;;-143.77;84.15
13836;BME280;6988;52.614;13.500;2024-02-21T03:18:44;54822.25;;;-143.77;84.57
13836;BME280;6988;52.614;13.500;2024-02-21T03:23:37;54789.41;;;-143.77;85.38
13836;BME280;6988;52.614;13.500;2024-02-21T03:28:29;54838.66;;;-143.77;85.81
13836;BME280;6988;52.614;13.500;2024-02-21T03:33:21;54816.09;;;-143.77;85.99
13836;BME280;6988;52.614;13.500;2024-02-21T03:38:14;54787.34;;;-143.77;86.54
13836;BME280;6988;52.614;13.500;2024-02-21T03:43:07;54791.47;;;-143.77;87.22
13836;BME280;6988;52.614;13.500;2024-02-21T03:47:59;54770.94;;;-143.77;87.52
13836;BME280;6988;52.614;13.500;2024-02-21T03:52:51;54807.88;;;-143.77;88.25
13836;BME280;6988;52.614;13.500;2024-02-21T03:57:42;54779.16;;;-143.77;88.37
13836;BME280;6988;52.614;13.500;2024-02-21T04:02:36;54785.31;;;-143.77;88.87
13836;BME280;6988;52.614;13.500;2024-02-21T04:07:28;54803.78;;;-143.77;88.62
13836;BME280;6988;52.614;13.500;2024-02-21T04:12:19;54801.72;;;-143.77;89.00
13836;BME280;6988;52.614;13.500;2024-02-21T04:17:11;54816.09;;;-143.77;89.06
13836;BME280;6988;52.614;13.500;2024-02-21T04:22:04;54803.78;;;-143.77;89.01
13836;BME280;6988;52.614;13.500;2024-02-21T04:26:56;54793.50;;;-143.77;89.21
13836;BME280;6988;52.614;13.500;2024-02-21T04:31:48;54801.72;;;-143.77;89.21
13836;BME280;6988;52.614;13.500;2024-02-21T04:36:41;54783.25;;;-143.77;89.39
13836;BME280;6988;52.614;13.500;2024-02-21T04:41:35;54775.03;;;-143.77;89.60
13836;BME280;6988;52.614;13.500;2024-02-21T04:46:27;54805.81;;;-143.77;89.51
13836;BME280;6988;52.614;13.500;2024-02-21T04:51:19;54803.78;;;-143.77;89.30
13836;BME280;6988;52.614;13.500;2024-02-21T04:56:11;54803.78;;;-143.77;88.91
13836;BME280;6988;52.614;13.500;2024-02-21T05:01:04;54775.03;;;-143.77;88.86
13836;BME280;6988;52.614;13.500;2024-02-21T05:05:56;54807.88;;;-143.77;88.93
13836;BME280;6988;52.614;13.500;2024-02-21T05:10:48;54789.41;;;-143.77;88.82
13836;BME280;6988;52.614;13.500;2024-02-21T05:15:40;54785.31;;;-143.77;88.43
13836;BME280;6988;52.614;13.500;2024-02-21T05:20:33;54799.66;;;-143.77;88.83
13836;BME280;6988;52.614;13.500;2024-02-21T05:25:25;54779.16;;;-143.77;88.91
13836;BME280;6988;52.614;13.500;2024-02-21T05:30:17;54795.56;;;-143.77;88.91
13836;BME280;6988;52.614;13.500;2024-02-21T05:35:09;54791.47;;;-143.77;88.71
13836;BME280;6988;52.614;13.500;2024-02-21T05:40:02;54801.72;;;-143.77;88.65
13836;BME280;6988;52.614;13.500;2024-02-21T05:44:54;54787.34;;;-143.77;88.50
13836;BME280;6988;52.614;13.500;2024-02-21T05:49:47;54742.22;;;-143.77;88.41
13836;BME280;6988;52.614;13.500;2024-02-21T05:54:39;54803.78;;;-143.77;88.30
13836;BME280;6988;52.614;13.500;2024-02-21T05:59:32;54807.88;;;-143.77;88.34
13836;BME280;6988;52.614;13.500;2024-02-21T06:04:25;54766.84;;;-143.77;88.37
13836;BME280;6988;52.614;13.500;2024-02-21T06:09:17;54797.63;;;-143.77;88.09
13836;BME280;6988;52.614;13.500;2024-02-21T06:14:09;54785.31;;;-143.77;87.71
13836;BME280;6988;52.614;13.500;2024-02-21T06:19:02;54770.94;;;-143.77;87.54
13836;BME280;6988;52.614;13.500;2024-02-21T06:23:54;54785.31;;;-143.77;87.56
13836;BME280;6988;52.614;13.500;2024-02-21T06:28:46;54793.50;;;-143.77;87.11
13836;BME280;6988;52.614;13.500;2024-02-21T06:33:38;54773.00;;;-143.77;87.21
13836;BME280;6988;52.614;13.500;2024-02-21T06:38:31;54787.34;;;-143.77;86.91
13836;BME280;6988;52.614;13.500;2024-02-21T06:43:24;54756.56;;;-143.77;86.84
13836;BME280;6988;52.614;13.500;2024-02-21T06:48:17;54801.72;;;-143.77;86.51
13836;BME280;6988;52.614;13.500;2024-02-21T06:53:09;54766.84;;;-143.77;86.31
13836;BME280;6988;52.614;13.500;2024-02-21T06:58:03;54775.03;;;-143.77;86.10
13836;BME280;6988;52.614;13.500;2024-02-21T07:02:55;54791.47;;;-143.77;85.91
13836;BME280;6988;52.614;13.500;2024-02-21T07:07:47;54781.19;;;-143.77;85.62
13836;BME280;6988;52.614;13.500;2024-02-21T07:12:38;54787.34;;;-143.77;85.71
13836;BME280;6988;52.614;13.500;2024-02-21T07:17:34;54807.88;;;-143.77;85.17
13836;BME280;6988;52.614;13.500;2024-02-21T07:22:25;54799.66;;;-143.77;85.03
13836;BME280;6988;52.614;13.500;2024-02-21T07:27:20;54758.63;;;-143.77;84.93
13836;BME280;6988;52.614;13.500;2024-02-21T07:32:12;54770.94;;;-143.77;84.85
13836;BME280;6988;52.614;13.500;2024-02-21T07:37:06;54797.63;;;-143.77;84.64
13836;BME280;6988;52.614;13.500;2024-02-21T07:41:57;54756.56;;;-143.77;84.31
13836;BME280;6988;52.614;13.500;2024-02-21T07:46:49;54742.22;;;-143.77;83.70
13836;BME280;6988;52.614;13.500;2024-02-21T07:51:41;54750.41;;;-143.77;83.46
13836;BME280;6988;52.614;13.500;2024-02-21T07:56:34;54791.47;;;-143.77;82.77
13836;BME280;6988;52.614;13.500;2024-02-21T08:01:26;54770.94;;;-143.77;82.49
13836;BME280;6988;52.614;13.500;2024-02-21T08:06:18;54742.22;;;-143.77;82.40
13836;BME280;6988;52.614;13.500;2024-02-21T08:11:10;54744.25;;;-143.77;82.13
13836;BME280;6988;52.614;13.500;2024-02-21T08:16:04;54729.91;;;-143.77;81.83
13836;BME280;6988;52.614;13.500;2024-02-21T08:20:56;54756.56;;;-143.77;81.55
13836;BME280;6988;52.614;13.500;2024-02-21T08:25:47;54762.72;;;-143.77;81.24
13836;BME280;6988;52.614;13.500;2024-02-21T08:30:40;54711.44;;;-143.77;81.49
13836;BME280;6988;52.614;13.500;2024-02-21T08:35:36;54752.47;;;-143.77;81.29
13836;BME280;6988;52.614;13.500;2024-02-21T08:40:28;54758.63;;;-143.77;80.70
13836;BME280;6988;52.614;13.500;2024-02-21T08:45:20;54760.69;;;-143.77;80.58
13836;BME280;6988;52.614;13.500;2024-02-21T08:50:12;54742.22;;;-143.77;80.68
13836;BME280;6988;52.614;13.500;2024-02-21T08:55:08;54754.53;;;-143.77;80.43
13836;BME280;6988;52.614;13.500;2024-02-21T09:00:00;54742.22;;;-143.77;80.31
13836;BME280;6988;52.614;13.500;2024-02-21T09:04:52;54746.31;;;-143.77;80.23
13836;BME280;6988;52.614;13.500;2024-02-21T09:09:45;54721.69;;;-143.77;79.60
13836;BME280;6988;52.614;13.500;2024-02-21T09:14:38;54744.25;;;-143.77;79.29
13836;BME280;6988;52.614;13.500;2024-02-21T09:19:30;54703.22;;;-143.77;78.69
13836;BME280;6988;52.614;13.500;2024-02-21T09:24:24;54746.31;;;-143.77;78.92
13836;BME280;6988;52.614;13.500;2024-02-21T09:29:16;54713.47;;;-143.77;78.86
13836;BME280;6988;52.614;13.500;2024-02-21T09:34:09;54721.69;;;-143.77;78.16
13836;BME280;6988;52.614;13.500;2024-02-21T09:39:02;54701.16;;;-143.77;77.91
13836;BME280;6988;52.614;13.500;2024-02-21T09:43:54;54664.22;;;-143.77;77.46
13836;BME280;6988;52.614;13.500;2024-02-21T09:49:05;54697.06;;;-143.77;76.61
13836;BME280;6988;52.614;13.500;2024-02-21T09:54:04;54676.53;;;-143.77;76.45
13836;BME280;6988;52.614;13.500;2024-02-21T09:58:58;54731.94;;;-143.77;75.88
13836;BME280;6988;52.614;13.500;2024-02-21T10:03:51;54711.44;;;-143.77;75.90
13836;BME280;6988;52.614;13.500;2024-02-21T10:08:42;54684.75;;;-143.77;76.08
13836;BME280;6988;52.614;13.500;2024-02-21T10:13:36;54715.53;;;-143.77;76.01
13836;BME280;6988;52.614;13.500;2024-02-21T10:18:29;54680.66;;;-143.77;76.03
13836;BME280;6988;52.614;13.500;2024-02-21T10:23:21;54682.69;;;-143.77;75.55
13836;BME280;6988;52.614;13.500;2024-02-21T10:28:13;54672.44;;;-143.77;75.46
13836;BME280;6988;52.614;13.500;2024-02-21T10:33:06;54621.13;;;-143.77;75.00
13836;BME280;6988;52.614;13.500;2024-02-21T10:37:59;54660.13;;;-143.77;74.37
13836;BME280;6988;52.614;13.500;2024-02-21T10:42:57;54699.13;;;-143.77;74.19
13836;BME280;6988;52.614;13.500;2024-02-21T10:48:01;54690.91;;;-143.77;73.73
13836;BME280;6988;52.614;13.500;2024-02-21T10:53:11;54664.22;;;-143.77;73.99
13836;BME280;6988;52.614;13.500;2024-02-21T10:58:09;54684.75;;;-143.77;74.27
13836;BME280;6988;52.614;13.500;2024-02-21T11:03:05;54668.34;;;-143.77;74.29
13836;BME280;6988;52.614;13.500;2024-02-21T11:07:59;54672.44;;;-143.77;74.78
13836;BME280;6988;52.614;13.500;2024-02-21T11:12:53;54639.59;;;-143.77;75.55
13836;BME280;6988;52.614;13.500;2024-02-21T11:17:54;54639.59;;;-143.77;76.32
13836;BME280;6988;52.614;13.500;2024-02-21T11:22:47;54664.22;;;-143.77;76.21
13836;BME280;6988;52.614;13.500;2024-02-21T11:27:46;54635.50;;;-143.77;76.83
13836;BME280;6988;52.614;13.500;2024-02-21T11:32:38;54660.13;;;-143.77;76.30
13836;BME280;6988;52.614;13.500;2024-02-21T11:37:32;54647.81;;;-143.77;75.00
13836;BME280;6988;52.614;13.500;2024-02-21T11:42:25;54643.72;;;-143.77;74.10
13836;BME280;6988;52.614;13.500;2024-02-21T11:47:18;54651.91;;;-143.77;74.04
13836;BME280;6988;52.614;13.500;2024-02-21T11:52:13;54610.88;;;-143.77;73.50
13836;BME280;6988;52.614;13.500;2024-02-21T11:57:06;54602.66;;;-143.77;72.88
13836;BME280;6988;52.614;13.500;2024-02-21T12:01:59;54569.84;;;-143.77;71.98
13836;BME280;6988;52.614;13.500;2024-02-21T12:06:53;54586.25;;;-143.77;71.33
13836;BME280;6988;52.614;13.500;2024-02-21T12:11:56;54565.72;;;-143.77;70.56
13836;BME280;6988;52.614;13.500;2024-02-21T12:16:48;54565.72;;;-143.77;70.45
13836;BME280;6988;52.614;13.500;2024-02-21T12:21:40;54586.25;;;-143.77;69.80
13836;BME280;6988;52.614;13.500;2024-02-21T12:26:34;54569.84;;;-143.77;70.13
13836;BME280;6988;52.614;13.500;2024-02-21T12:31:26;54559.56;;;-143.77;70.03
13836;BME280;6988;52.614;13.500;2024-02-21T12:36:18;54590.34;;;-143.77;69.41
13836;BME280;6988;52.614;13.500;2024-02-21T12:41:10;54576.00;;;-143.77;68.95
13836;BME280;6988;52.614;13.500;2024-02-21T12:46:04;54565.72;;;-143.77;68.18
13836;BME280;6988;52.614;13.500;2024-02-21T12:50:58;54510.34;;;-143.77;67.98
13836;BME280;6988;52.614;13.500;2024-02-21T12:55:50;54549.31;;;-143.77;65.85
13836;BME280;6988;52.614;13.500;2024-02-21T13:00:43;54537.00;;;-143.77;65.79
13836;BME280;6988;52.614;13.500;2024-02-21T13:05:36;54530.84;;;-143.77;66.27
13836;BME280;6988;52.614;13.500;2024-02-21T13:10:29;54541.09;;;-143.77;66.38
13836;BME280;6988;52.614;13.500;2024-02-21T13:15:21;54528.78;;;-143.77;67.14
13836;BME280;6988;52.614;13.500;2024-02-21T13:20:13;54539.06;;;-143.77;66.85
13836;BME280;6988;52.614;13.500;2024-02-21T13:25:08;54569.84;;;-143.77;66.90
13836;BME280;6988;52.614;13.500;2024-02-21T13:30:01;54553.41;;;-143.77;66.94
13836;BME280;6988;52.614;13.500;2024-02-21T13:34:56;54528.78;;;-143.77;67.52
13836;BME280;6988;52.614;13.500;2024-02-21T13:39:51;54573.94;;;-143.77;67.45
13836;BME280;6988;52.614;13.500;2024-02-21T13:44:45;54561.63;;;-143.77;67.42
13836;BME280;6988;52.614;13.500;2024-02-21T13:49:37;54598.56;;;-143.77;68.27
13836;BME280;6988;52.614;13.500;2024-02-21T13:54:30;54588.31;;;-143.77;67.93
13836;BME280;6988;52.614;13.500;2024-02-21T13:59:22;54584.19;;;-143.77;67.84
13836;BME280;6988;52.614;13.500;2024-02-21T14:04:15;54586.25;;;-143.77;68.07
13836;BME280;6988;52.614;13.500;2024-02-21T14:09:07;54590.34;;;-143.77;68.06
13836;BME280;6988;52.614;13.500;2024-02-21T14:13:59;54578.03;;;-143.77;68.02
13836;BME280;6988;52.614;13.500;2024-02-21T14:18:51;54606.78;;;-143.77;68.63
13836;BME280;6988;52.614;13.500;2024-02-21T14:23:46;54645.75;;;-143.77;69.02
13836;BME280;6988;52.614;13.500;2024-02-21T14:28:38;54606.78;;;-143.77;68.73
13836;BME280;6988;52.614;13.500;2024-02-21T14:33:30;54658.06;;;-143.77;68.93
13836;BME280;6988;52.614;13.500;2024-02-21T14:38:23;54594.47;;;-143.77;69.23
13836;BME280;6988;52.614;13.500;2024-02-21T14:43:16;54565.72;;;-143.77;68.75
13836;BME280;6988;52.614;13.500;2024-02-21T14:48:09;54623.19;;;-143.77;68.72
13836;BME280;6988;52.614;13.500;2024-02-21T14:53:01;54639.59;;;-143.77;68.52
13836;BME280;6988;52.614;13.500;2024-02-21T14:57:53;54612.94;;;-143.77;68.03
13836;BME280;6988;52.614;13.500;2024-02-21T15:02:46;54600.63;;;-143.77;68.43
13836;BME280;6988;52.614;13.500;2024-02-21T15:07:38;54643.72;;;-143.77;68.27
13836;BME280;6988;52.614;13.500;2024-02-21T15:12:31;54606.78;;;-143.77;67.94
13836;BME280;6988;52.614;13.500;2024-02-21T15:17:23;54608.81;;;-143.77;68.21
13836;BME280;6988;52.614;13.500;2024-02-21T15:22:16;54649.88;;;-143.77;68.05
13836;BME280;6988;52.614;13.500;2024-02-21T15:27:10;54608.81;;;-143.77;67.68
13836;BME280;6988;52.614;13.500;2024-02-21T15:32:02;54651.91;;;-143.77;67.30
13836;BME280;6988;52.614;13.500;2024-02-21T15:36:57;54590.34;;;-143.77;67.58
13836;BME280;6988;52.614;13.500;2024-02-21T15:41:51;54631.41;;;-143.77;68.09
13836;BME280;6988;52.614;13.500;2024-02-21T15:46:43;54588.31;;;-143.77;67.40
13836;BME280;6988;52.614;13.500;2024-02-21T15:51:35;54590.34;;;-143.77;66.34
13836;BME280;6988;52.614;13.500;2024-02-21T15:56:30;54637.56;;;-143.77;66.05
13836;BME280;6988;52.614;13.500;2024-02-21T16:01:24;54639.59;;;-143.77;66.25
13836;BME280;6988;52.614;13.500;2024-02-21T16:06:16;54604.72;;;-143.77;67.22
13836;BME280;6988;52.614;13.500;2024-02-21T16:11:13;54637.56;;;-143.77;67.49
13836;BME280;6988;52.614;13.500;2024-02-21T16:16:08;54680.66;;;-143.77;67.81
13836;BME280;6988;52.614;13.500;2024-02-21T16:21:01;54645.75;;;-143.77;67.76
13836;BME280;6988;52.614;13.500;2024-02-21T16:25:56;54649.88;;;-143.77;68.15
13836;BME280;6988;52.614;13.500;2024-02-21T16:30:48;54684.75;;;-143.77;68.34
13836;BME280;6988;52.614;13.500;2024-02-21T16:35:41;54672.44;;;-143.77;69.38
13836;BME280;6988;52.614;13.500;2024-02-21T16:40:36;54649.88;;;-143.77;69.93
13836;BME280;6988;52.614;13.500;2024-02-21T16:45:28;54664.22;;;-143.77;70.17
13836;BME280;6988;52.614;13.500;2024-02-21T16:50:20;54664.22;;;-143.77;70.49
13836;BME280;6988;52.614;13.500;2024-02-21T16:55:12;54668.34;;;-143.77;70.33
13836;BME280;6988;52.614;13.500;2024-02-21T17:00:07;54676.53;;;-143.77;70.07
13836;BME280;6988;52.614;13.500;2024-02-21T17:05:01;54721.69;;;-143.77;69.96
13836;BME280;6988;52.614;13.500;2024-02-21T17:09:54;54695.00;;;-143.77;70.32
13836;BME280;6988;52.614;13.500;2024-02-21T17:14:46;54713.47;;;-143.77;70.46
13836;BME280;6988;52.614;13.500;2024-02-21T17:19:39;54686.81;;;-143.77;70.72
13836;BME280;6988;52.614;13.500;2024-02-21T17:24:33;54692.97;;;-143.77;70.42
13836;BME280;6988;52.614;13.500;2024-02-21T17:29:25;54719.63;;;-143.77;70.62
13836;BME280;6988;52.614;13.500;2024-02-21T17:34:17;54688.84;;;-143.77;70.67
13836;BME280;6988;52.614;13.500;2024-02-21T17:39:12;54713.47;;;-143.77;70.32
13836;BME280;6988;52.614;13.500;2024-02-21T17:44:06;54697.06;;;-143.77;70.62
13836;BME280;6988;52.614;13.500;2024-02-21T17:48:58;54719.63;;;-143.77;70.98
13836;BME280;6988;52.614;13.500;2024-02-21T17:53:51;54705.28;;;-143.77;70.86
13836;BME280;6988;52.614;13.500;2024-02-21T17:58:44;54713.47;;;-143.77;71.16
13836;BME280;6988;52.614;13.500;2024-02-21T18:03:36;54717.59;;;-143.77;71.26
13836;BME280;6988;52.614;13.500;2024-02-21T18:08:28;54742.22;;;-143.77;71.46
13836;BME280;6988;52.614;13.500;2024-02-21T18:13:20;54719.63;;;-143.77;71.95
13836;BME280;6988;52.614;13.500;2024-02-21T18:18:14;54742.22;;;-143.77;72.16
13836;BME280;6988;52.614;13.500;2024-02-21T18:23:07;54744.25;;;-143.77;72.31
13836;BME280;6988;52.614;13.500;2024-02-21T18:27:59;54834.56;;;-143.77;72.72
13836;BME280;6988;52.614;13.500;2024-02-21T18:32:51;54770.94;;;-143.77;72.99
13836;BME280;6988;52.614;13.500;2024-02-21T18:37:45;54758.63;;;-143.77;73.34
13836;BME280;6988;52.614;13.500;2024-02-21T18:42:38;54742.22;;;-143.77;73.59
13836;BME280;6988;52.614;13.500;2024-02-21T18:47:31;54734.00;;;-143.77;74.00
13836;BME280;6988;52.614;13.500;2024-02-21T18:52:23;54746.31;;;-143.77;74.59
13836;BME280;6988;52.614;13.500;2024-02-21T18:57:17;54762.72;;;-143.77;75.11
13836;BME280;6988;52.614;13.500;2024-02-21T19:02:09;54768.88;;;-143.77;75.56
13836;BME280;6988;52.614;13.500;2024-02-21T19:07:01;54775.03;;;-143.77;76.22
13836;BME280;6988;52.614;13.500;2024-02-21T19:11:53;54791.47;;;-143.77;77.10
13836;BME280;6988;52.614;13.500;2024-02-21T19:16:46;54770.94;;;-143.77;77.13
13836;BME280;6988;52.614;13.500;2024-02-21T19:21:38;54807.88;;;-143.77;78.02
13836;BME280;6988;52.614;13.500;2024-02-21T19:26:30;54787.34;;;-143.77;77.62
13836;BME280;6988;52.614;13.500;2024-02-21T19:31:22;54758.63;;;-143.77;77.91
13836;BME280;6988;52.614;13.500;2024-02-21T19:36:15;54783.25;;;-143.77;78.48
13836;BME280;6988;52.614;13.500;2024-02-21T19:41:09;54785.31;;;-143.77;78.91
13836;BME280;6988;52.614;13.500;2024-02-21T19:46:01;54754.53;;;-143.77;79.00
13836;BME280;6988;52.614;13.500;2024-02-21T19:50:53;54775.03;;;-143.77;79.38
13836;BME280;6988;52.614;13.500;2024-02-21T19:55:48;54758.63;;;-143.77;79.41
13836;BME280;6988;52.614;13.500;2024-02-21T20:00:41;54783.25;;;-143.77;79.68
13836;BME280;6988;52.614;13.500;2024-02-21T20:05:34;54791.47;;;-143.77;79.91
13836;BME280;6988;52.614;13.500;2024-02-21T20:10:25;54791.47;;;-143.77;79.84
13836;BME280;6988;52.614;13.500;2024-02-21T20:15:19;54793.50;;;-143.77;80.08
13836;BME280;6988;52.614;13.500;2024-02-21T20:20:12;54799.66;;;-143.77;80.01
13836;BME280;6988;52.614;13.500;2024-02-21T20:25:05;54785.31;;;-143.77;79.66
13836;BME280;6988;52.614;13.500;2024-02-21T20:29:57;54762.72;;;-143.77;79.29
13836;BME280;6988;52.614;13.500;2024-02-21T20:34:50;54844.81;;;-143.77;79.29
13836;BME280;6988;52.614;13.500;2024-02-21T20:39:42;54791.47;;;-143.77;79.03
13836;BME280;6988;52.614;13.500;2024-02-21T20:44:34;54799.66;;;-143.77;78.00
13836;BME280;6988;52.614;13.500;2024-02-21T20:49:27;54742.22;;;-143.77;77.30
13836;BME280;6988;52.614;13.500;2024-02-21T20:54:20;54775.03;;;-143.77;76.78
13836;BME280;6988;52.614;13.500;2024-02-21T20:59:13;54773.00;;;-143.77;76.41
13836;BME280;6988;52.614;13.500;2024-02-21T21:04:06;54742.22;;;-143.77;75.98
13836;BME280;6988;52.614;13.500;2024-02-21T21:08:58;54744.25;;;-143.77;75.83
13836;BME280;6988;52.614;13.500;2024-02-21T21:13:51;54760.69;;;-143.77;75.04
13836;BME280;6988;52.614;13.500;2024-02-21T21:18:43;54799.66;;;-143.77;74.44
13836;BME280;6988;52.614;13.500;2024-02-21T21:23:35;54768.88;;;-143.77;74.12
13836;BME280;6988;52.614;13.500;2024-02-21T21:28:26;54787.34;;;-143.77;73.70
13836;BME280;6988;52.614;13.500;2024-02-21T21:33:20;54725.78;;;-143.77;73.66
13836;BME280;6988;52.614;13.500;2024-02-21T21:38:12;54725.78;;;-143.77;73.96
13836;BME280;6988;52.614;13.500;2024-02-21T21:43:04;54789.41;;;-143.77;72.87
13836;BME280;6988;52.614;13.500;2024-02-21T21:47:56;54752.47;;;-143.77;73.00
13836;BME280;6988;52.614;13.500;2024-02-21T21:52:49;54734.00;;;-143.77;72.59
13836;BME280;6988;52.614;13.500;2024-02-21T21:57:44;54770.94;;;-143.77;72.51
13836;BME280;6988;52.614;13.500;2024-02-21T22:02:36;54764.78;;;-143.77;72.04
13836;BME280;6988;52.614;13.500;2024-02-21T22:07:27;54756.56;;;-143.77;71.22
13836;BME280;6988;52.614;13.500;2024-02-21T22:12:20;54775.03;;;-143.77;71.32
13836;BME280;6988;52.614;13.500;2024-02-21T22:17:12;54764.78;;;-143.77;70.98
13836;BME280;6988;52.614;13.500;2024-02-21T22:22:04;54709.38;;;-143.77;70.56
13836;BME280;6988;52.614;13.500;2024-02-21T22:26:56;54725.78;;;-143.77;70.65
13836;BME280;6988;52.614;13.500;2024-02-21T22:31:51;54715.53;;;-143.77;70.27
13836;BME280;6988;52.614;13.500;2024-02-21T22:36:43;54752.47;;;-143.77;69.72
13836;BME280;6988;52.614;13.500;2024-02-21T22:41:35;54709.38;;;-143.77;69.68
13836;BME280;6988;52.614;13.500;2024-02-21T23:04:31;54752.47;;;-143.77;70.20
13836;BME280;6988;52.614;13.500;2024-02-21T23:09:23;54731.94;;;-143.77;70.29
13836;BME280;6988;52.614;13.500;2024-02-21T23:14:15;54725.78;;;-143.77;69.92
13836;BME280;6988;52.614;13.500;2024-02-21T23:19:09;54758.63;;;-143.77;70.07
13836;BME280;6988;52.614;13.500;2024-02-21T23:24:03;54727.84;;;-143.77;69.66
13836;BME280;6988;52.614;13.500;2024-02-21T23:28:55;54721.69;;;-143.77;69.44
13836;BME280;6988;52.614;13.500;2024-02-21T23:33:48;54764.78;;;-143.77;69.29
13836;BME280;6988;52.614;13.500;2024-02-21T23:38:40;54744.25;;;-143.77;69.51
13836;BME280;6988;52.614;13.500;2024-02-21T23:43:40;54721.69;;;-143.77;69.34
13836;BME280;6988;52.614;13.500;2024-02-21T23:48:32;54713.47;;;-143.77;69.28
13836;BME280;6988;52.614;13.500;2024-02-21T23:53:25;54754.53;;;-143.77;69.94
13836;BME280;6988;52.614;13.500;2024-02-21T23:58:17;54703.22;;;-143.77;70.33
